This is the latest recevied weather packets stored in our database for station/object IR3AS. If no packets are shown the sender has not sent any weather packets the latest 10 day(s).
| Time | Temp. | Humidity | Pressure | Rain* | Wind** | Luminosity | Snow |
|---|---|---|---|---|---|---|---|
| 1788109192 | 15.56° C | 70% | 868.2 hPa | 0 mm | - | - | - |
| 1788108892 | 16.67° C | 68% | 868.2 hPa | 0 mm | - | - | - |
| 1788108592 | 17.78° C | 65% | 868.1 hPa | 0 mm | - | - | - |
| 1788108292 | 17.78° C | 64% | 868.3 hPa | 0 mm | - | - | - |
| 1788107992 | 18.33° C | 64% | 868.2 hPa | 0 mm | - | - | - |
| 1788107693 | 17.78° C | 63% | 868.5 hPa | 0 mm | - | - | - |
| 1788107392 | 18.33° C | 62% | 868.3 hPa | 0 mm | - | - | - |
| 1788107092 | 18.33° C | 62% | 868.3 hPa | 0 mm | - | - | - |
| 1788106792 | 18.33° C | 62% | 868.4 hPa | 0 mm | - | - | - |
| 1788106493 | 18.89° C | 61% | 868.3 hPa | 0 mm | - | - | - |
| 1788106192 | 18.89° C | 62% | 868.2 hPa | 0 mm | - | - | - |
| 1788105892 | 18.89° C | 62% | 868.2 hPa | 0 mm | - | - | - |
| 1788105595 | 18.33° C | 64% | 868.2 hPa | 0 mm | - | - | - |
| 1788105292 | 17.78° C | 66% | 868.1 hPa | 0 mm | - | - | - |
| 1788104992 | 17.22° C | 67% | 868 hPa | 0 mm | - | - | - |
| 1788104692 | 16.67° C | 68% | 867.8 hPa | 0 mm | - | - | - |
| 1788104392 | 16.67° C | 68% | 867.9 hPa | 0 mm | - | - | - |
| 1788104092 | 16.67° C | 68% | 867.8 hPa | 0 mm | - | - | - |
| 1788103792 | 16.67° C | 69% | 868.1 hPa | 0 mm | - | - | - |
| 1788103492 | 16.67° C | 69% | 868 hPa | 0 mm | - | - | - |
| 1788103193 | 16.67° C | 69% | 867.8 hPa | 0 mm | - | - | - |
| 1788102892 | 16.67° C | 68% | 867.9 hPa | 0 mm | - | - | - |
| 1788102592 | 16.67° C | 66% | 868.1 hPa | 0 mm | - | - | - |
| 1788102292 | 16.67° C | 66% | 867.8 hPa | 0 mm | - | - | - |
| 1788101993 | 17.22° C | 64% | 867.7 hPa | 0 mm | - | - | - |
* Rain latest hour (hover to see other rain measurements)
** Current wind speed in m/s (hover to see current wind gust speed)